Time;durP1;ratioP1;P1;durP2;ratioP2;P2;SDS_P1;SDS_P2;PMS_P1;PMS_P2;Temp;Humidity;BMP_temperature;BMP_pressure;BME280_temperature;BME280_humidity;BME280_pressure;Samples;Min_cycle;Max_cycle;Signal;HPM_P1;HPM_P2
2022/04/14 00:00:20;;;;;;;7.35;3.95;;;11.30;99.90;;;;;;5131691;27;20425;-78
2022/04/14 00:02:46;;;;;;;6.30;3.90;;;11.20;99.90;;;;;;5132013;27;20130;-78
2022/04/14 00:05:11;;;;;;;8.55;4.95;;;11.30;99.90;;;;;;5114327;27;20035;-78
2022/04/14 00:07:37;;;;;;;6.93;4.47;;;11.20;99.90;;;;;;5131988;27;20075;-78
2022/04/14 00:10:04;;;;;;;5.20;3.80;;;11.20;99.90;;;;;;5114493;27;20367;-79
2022/04/14 00:12:30;;;;;;;6.22;4.07;;;11.20;99.90;;;;;;5131749;27;20085;-78
2022/04/14 00:14:55;;;;;;;5.13;4.25;;;11.20;99.90;;;;;;5131619;27;20074;-74
2022/04/14 00:17:21;;;;;;;6.88;4.13;;;11.10;99.90;;;;;;5097019;27;20440;-75
2022/04/14 00:19:47;;;;;;;5.65;3.75;;;11.10;99.90;;;;;;5131271;27;20039;-75
2022/04/14 00:22:12;;;;;;;5.45;3.45;;;11.10;99.90;;;;;;5130878;27;20083;-76
2022/04/14 00:24:38;;;;;;;5.03;3.40;;;11.10;99.90;;;;;;5113810;27;20050;-76
2022/04/14 00:27:04;;;;;;;5.82;3.78;;;11.00;99.90;;;;;;5131077;27;20051;-76
2022/04/14 00:29:29;;;;;;;3.95;2.72;;;11.00;99.90;;;;;;5129237;27;20627;-76
2022/04/14 00:31:55;;;;;;;5.10;3.50;;;10.90;99.90;;;;;;5093271;28;20036;-75
2022/04/14 00:34:21;;;;;;;4.60;3.15;;;10.90;99.90;;;;;;5104941;27;20059;-75
2022/04/14 00:36:47;;;;;;;4.63;2.95;;;10.90;99.90;;;;;;5113484;27;20043;-75
2022/04/14 00:39:12;;;;;;;3.75;2.60;;;10.80;99.90;;;;;;5130698;27;20047;-74
2022/04/14 00:41:38;;;;;;;4.15;2.75;;;10.70;99.90;;;;;;5130389;27;20096;-75
2022/04/14 00:44:05;;;;;;;6.03;3.58;;;10.70;99.90;;;;;;5130705;27;20042;-74
2022/04/14 00:46:31;;;;;;;5.35;3.20;;;10.70;99.90;;;;;;5130294;27;20171;-75
2022/04/14 00:48:57;;;;;;;4.97;3.60;;;10.70;99.90;;;;;;5130531;27;20070;-75
2022/04/14 00:51:23;;;;;;;5.60;3.85;;;10.60;99.90;;;;;;5129616;27;20151;-75
2022/04/14 00:53:49;;;;;;;5.28;3.75;;;10.60;99.90;;;;;;5130742;28;20039;-78
2022/04/14 00:56:15;;;;;;;4.05;3.30;;;10.60;99.90;;;;;;5130932;28;20050;-78
2022/04/14 00:58:41;;;;;;;4.82;3.17;;;10.60;99.90;;;;;;5113540;28;20053;-75
2022/04/14 01:01:07;;;;;;;4.75;3.20;;;10.50;99.90;;;;;;5120316;28;20122;-75
2022/04/14 01:03:36;;;;;;;;;;;10.40;99.90;;;;;;5110315;28;20489;-75
2022/04/14 01:06:05;;;;;;;5.60;2.70;;;10.40;99.90;;;;;;5110808;28;20386;-76
2022/04/14 01:08:32;;;;;;;3.45;2.58;;;10.30;99.90;;;;;;5131709;27;20039;-74
2022/04/14 01:10:59;;;;;;;4.07;3.00;;;10.30;99.90;;;;;;5129626;28;20036;-75
2022/04/14 01:13:25;;;;;;;4.47;2.83;;;10.30;99.90;;;;;;5111590;28;20183;-75
2022/04/14 01:15:57;;;;;;;3.67;2.53;;;10.20;99.90;;;;;;5113147;27;20093;-75
2022/04/14 01:18:23;;;;;;;3.60;2.55;;;10.20;99.90;;;;;;5130220;28;20092;-75
2022/04/14 01:20:48;;;;;;;3.42;2.70;;;10.10;99.90;;;;;;5100003;28;20043;-75
2022/04/14 01:23:25;;;;;;;4.28;3.00;;;10.10;99.90;;;;;;5109935;28;20043;-75
2022/04/14 01:25:51;;;;;;;3.90;2.42;;;10.10;99.90;;;;;;5109389;28;20081;-75
2022/04/14 01:28:18;;;;;;;4.68;3.13;;;10.00;99.90;;;;;;5109709;28;20048;-75
2022/04/14 01:30:43;;;;;;;4.05;3.22;;;10.00;99.90;;;;;;5106172;28;20504;-75
2022/04/14 01:33:09;;;;;;;5.00;2.92;;;10.00;99.90;;;;;;5112427;28;20043;-75
2022/04/14 01:35:35;;;;;;;4.05;2.80;;;9.90;99.90;;;;;;5129961;28;20078;-75
2022/04/14 01:38:00;;;;;;;4.03;2.92;;;9.90;99.90;;;;;;5130131;28;20047;-75
2022/04/14 01:40:28;;;;;;;4.68;2.88;;;9.90;99.90;;;;;;5113071;28;20046;-75
2022/04/14 01:42:54;;;;;;;3.97;2.80;;;9.80;99.90;;;;;;5113125;28;20160;-75
2022/04/14 01:45:20;;;;;;;3.72;2.70;;;9.90;99.90;;;;;;5129556;28;20063;-75
2022/04/14 01:47:47;;;;;;;4.18;2.60;;;9.80;99.90;;;;;;5096041;28;20047;-74
2022/04/14 01:50:14;;;;;;;4.85;3.20;;;9.80;99.90;;;;;;5112364;27;20125;-75
2022/04/14 01:52:41;;;;;;;5.45;3.13;;;9.80;99.90;;;;;;5126393;27;20043;-75
2022/04/14 01:55:08;;;;;;;6.35;4.20;;;9.80;99.90;;;;;;5113187;28;20047;-75
2022/04/14 01:57:34;;;;;;;5.88;3.88;;;9.80;99.90;;;;;;5113409;28;20368;-75
2022/04/14 02:00:01;;;;;;;5.25;3.40;;;9.70;99.90;;;;;;5113174;27;20237;-74
2022/04/14 02:02:27;;;;;;;6.63;4.72;;;9.70;99.90;;;;;;5131636;27;20366;-74
2022/04/14 02:04:53;;;;;;;5.65;4.40;;;9.70;99.90;;;;;;5132888;27;20144;-74
2022/04/14 02:07:19;;;;;;;5.28;4.20;;;9.70;99.90;;;;;;5114000;27;20370;-74
2022/04/14 02:09:45;;;;;;;6.10;4.32;;;9.60;99.90;;;;;;5105304;27;20115;-75
2022/04/14 02:12:12;;;;;;;4.68;3.80;;;9.60;99.90;;;;;;5116202;27;20039;-74
2022/04/14 02:14:38;;;;;;;6.35;4.10;;;9.60;99.90;;;;;;5116115;27;20123;-74
2022/04/14 02:17:05;;;;;;;5.07;3.80;;;9.60;99.90;;;;;;5133519;27;20176;-74
2022/04/14 02:19:31;;;;;;;3.65;2.70;;;9.50;99.90;;;;;;5133143;27;20043;-74
2022/04/14 02:21:58;;;;;;;4.35;3.22;;;9.50;99.90;;;;;;5116382;27;20047;-74
2022/04/14 02:24:27;;;;;;;6.00;3.60;;;9.50;99.90;;;;;;5133083;27;20401;-74
2022/04/14 02:26:53;;;;;;;5.75;4.10;;;9.40;99.90;;;;;;5095919;28;20039;-75
2022/04/14 02:29:19;;;;;;;;;;;9.40;99.90;;;;;;5097168;28;20047;-75
2022/04/14 02:31:45;;;;;;;8.20;5.43;;;9.30;99.90;;;;;;5112265;28;19920;-75
2022/04/14 02:34:11;;;;;;;6.28;4.82;;;9.40;99.90;;;;;;5095363;28;20067;-75
2022/04/14 02:36:37;;;;;;;5.43;4.03;;;9.30;99.90;;;;;;5095259;28;20116;-75
2022/04/14 02:39:03;;;;;;;4.70;3.42;;;9.30;99.90;;;;;;5113035;28;20065;-75
2022/04/14 02:41:29;;;;;;;3.95;3.20;;;9.30;99.90;;;;;;5112470;28;20375;-74
2022/04/14 02:43:54;;;;;;;5.13;4.05;;;9.20;99.90;;;;;;5112100;28;20039;-75
2022/04/14 02:46:20;;;;;;;4.38;3.33;;;9.20;99.90;;;;;;5111857;28;20047;-74
2022/04/14 02:48:46;;;;;;;5.00;3.45;;;9.20;99.90;;;;;;5112009;28;20075;-75
2022/04/14 02:51:11;;;;;;;5.50;3.60;;;9.10;99.90;;;;;;5112105;28;20047;-74
2022/04/14 02:53:37;;;;;;;4.55;3.40;;;9.10;99.90;;;;;;5111881;28;20119;-74
2022/04/14 02:56:05;;;;;;;7.20;5.15;;;9.10;99.90;;;;;;5095113;28;20043;-74
2022/04/14 02:58:32;;;;;;;8.30;6.57;;;9.10;99.90;;;;;;5111856;28;20140;-74
2022/04/14 03:00:57;;;;;;;7.43;5.47;;;9.00;99.90;;;;;;5125596;27;20041;-73
2022/04/14 03:03:24;;;;;;;5.95;4.63;;;9.10;99.90;;;;;;5119802;28;20111;-73
2022/04/14 03:05:50;;;;;;;5.53;4.10;;;9.00;99.90;;;;;;5118390;28;20477;-74
2022/04/14 03:08:17;;;;;;;4.90;3.30;;;9.00;99.90;;;;;;5111885;28;20170;-74
2022/04/14 03:10:43;;;;;;;4.90;3.67;;;9.00;99.90;;;;;;5100546;28;20048;-73
2022/04/14 03:13:08;;;;;;;4.63;3.30;;;8.90;99.90;;;;;;5110540;28;20039;-74
2022/04/14 03:15:34;;;;;;;7.50;4.97;;;8.80;99.90;;;;;;5139309;27;20067;-73
2022/04/14 03:18:00;;;;;;;7.78;5.68;;;8.80;99.90;;;;;;5119223;27;20039;-75
2022/04/14 03:20:26;;;;;;;8.90;6.15;;;8.80;99.90;;;;;;5132272;27;20046;-75
2022/04/14 03:22:51;;;;;;;8.05;5.85;;;8.80;99.90;;;;;;5117311;27;20042;-74
2022/04/14 03:25:17;;;;;;;11.35;7.93;;;8.80;99.90;;;;;;5078257;28;20046;-75
2022/04/14 03:27:43;;;;;;;14.32;8.40;;;8.90;99.90;;;;;;5111833;28;20118;-75
2022/04/14 03:30:12;;;;;;;10.70;7.50;;;8.90;99.90;;;;;;5111604;28;20042;-74
2022/04/14 03:32:46;;;;;;;8.32;6.30;;;8.90;99.90;;;;;;5114486;27;20480;-75
2022/04/14 03:35:13;;;;;;;7.82;5.75;;;8.80;99.90;;;;;;5111364;28;20047;-75
2022/04/14 03:37:39;;;;;;;5.95;4.40;;;8.80;99.90;;;;;;5094520;28;20425;-76
2022/04/14 03:40:05;;;;;;;;;;;8.80;99.90;;;;;;5094721;28;20051;-76
2022/04/14 03:42:31;;;;;;;9.43;6.78;;;8.80;99.90;;;;;;5106288;27;19972;-75
2022/04/14 03:44:58;;;;;;;9.68;7.68;;;8.70;99.90;;;;;;5110823;28;20047;-76
2022/04/14 03:47:25;;;;;;;10.55;6.97;;;8.70;99.90;;;;;;5094337;28;20071;-75
2022/04/14 03:49:51;;;;;;;11.07;7.53;;;8.70;99.90;;;;;;5111446;28;20047;-75
2022/04/14 03:52:17;;;;;;;10.93;6.90;;;8.70;99.90;;;;;;5093972;28;20038;-75
2022/04/14 03:54:43;;;;;;;9.60;6.38;;;8.60;99.90;;;;;;5094141;28;20478;-74
2022/04/14 03:57:09;;;;;;;8.20;6.20;;;8.60;99.90;;;;;;5110685;28;20467;-75
2022/04/14 03:59:35;;;;;;;7.90;5.75;;;8.60;99.90;;;;;;5110811;28;20084;-75
2022/04/14 04:02:00;;;;;;;5.03;4.28;;;8.50;99.90;;;;;;5111024;28;20509;-75
2022/04/14 04:04:26;;;;;;;5.88;4.05;;;8.50;99.90;;;;;;5110502;28;20040;-75
2022/04/14 04:06:52;;;;;;;4.88;3.83;;;8.40;99.90;;;;;;5129143;27;20037;-74
2022/04/14 04:09:17;;;;;;;5.88;4.78;;;8.40;99.90;;;;;;5097311;27;20130;-74
2022/04/14 04:11:43;;;;;;;8.55;6.35;;;8.40;99.90;;;;;;5113194;27;20027;-75
2022/04/14 04:14:10;;;;;;;8.00;5.63;;;8.40;99.90;;;;;;5131140;27;20702;-75
2022/04/14 04:16:35;;;;;;;7.00;5.20;;;8.40;99.90;;;;;;5119714;27;20364;-75
2022/04/14 04:19:01;;;;;;;8.88;6.35;;;8.30;99.90;;;;;;5093249;28;20050;-75
2022/04/14 04:21:29;;;;;;;8.13;5.60;;;8.40;99.90;;;;;;5093851;28;20054;-74
2022/04/14 04:23:55;;;;;;;6.40;5.07;;;8.30;99.90;;;;;;5110538;28;20138;-74
2022/04/14 04:26:20;;;;;;;7.32;5.05;;;8.20;99.90;;;;;;5110451;28;20180;-75
2022/04/14 04:28:46;;;;;;;6.72;5.40;;;8.20;99.90;;;;;;5110412;28;20558;-74
2022/04/14 04:31:12;;;;;;;5.90;4.28;;;8.20;99.90;;;;;;5093128;28;20051;-75
2022/04/14 04:33:38;;;;;;;5.18;3.78;;;8.10;99.90;;;;;;5109926;28;20039;-74
2022/04/14 04:36:04;;;;;;;7.28;4.57;;;8.10;99.90;;;;;;5110049;28;20055;-75
2022/04/14 04:38:29;;;;;;;6.88;4.60;;;8.10;99.90;;;;;;5110096;28;20047;-75
2022/04/14 04:40:58;;;;;;;7.40;4.75;;;8.00;99.90;;;;;;5127851;27;20047;-75
2022/04/14 04:43:26;;;;;;;5.03;4.30;;;8.00;99.90;;;;;;5113930;28;20075;-75
2022/04/14 04:45:52;;;;;;;5.18;4.10;;;7.90;99.90;;;;;;5129984;27;20086;-75
2022/04/14 04:48:18;;;;;;;6.75;4.35;;;7.90;99.90;;;;;;5113378;27;20457;-74
2022/04/14 04:50:43;;;;;;;6.15;5.22;;;7.90;99.90;;;;;;5113493;28;20035;-75
2022/04/14 04:53:09;;;;;;;6.57;4.80;;;7.90;99.90;;;;;;5130446;28;20035;-76
2022/04/14 04:55:35;;;;;;;5.93;4.68;;;8.00;99.90;;;;;;5130407;28;20051;-75
2022/04/14 04:58:00;;;;;;;6.03;4.63;;;8.00;99.90;;;;;;5130450;28;20047;-75
2022/04/14 05:00:26;;;;;;;4.82;4.05;;;8.00;99.90;;;;;;5128575;28;20039;-75
2022/04/14 05:02:52;;;;;;;5.93;4.70;;;7.90;99.90;;;;;;5130491;27;20220;-74
2022/04/14 05:05:22;;;;;;;6.22;4.78;;;7.90;99.90;;;;;;5130601;28;20043;-76
2022/04/14 05:07:47;;;;;;;6.22;4.30;;;8.00;99.90;;;;;;5130099;28;20070;-76
2022/04/14 05:10:13;;;;;;;6.72;4.93;;;8.00;99.90;;;;;;5119988;28;20085;-76
2022/04/14 05:12:39;;;;;;;6.65;5.28;;;8.00;99.90;;;;;;5093110;28;20474;-74
2022/04/14 05:15:06;;;;;;;11.63;8.82;;;8.00;99.90;;;;;;5111050;28;20055;-75
2022/04/14 05:17:31;;;;;;;12.68;9.45;;;8.10;99.90;;;;;;5114798;28;20165;-74
2022/04/14 05:19:57;;;;;;;10.00;7.78;;;8.10;99.90;;;;;;5110804;28;20122;-74
2022/04/14 05:22:23;;;;;;;9.32;6.95;;;8.10;99.90;;;;;;5092564;28;20032;-74
2022/04/14 05:24:48;;;;;;;10.93;7.75;;;8.10;99.90;;;;;;5111437;28;20047;-75
2022/04/14 05:27:14;;;;;;;11.45;7.78;;;8.20;99.90;;;;;;5130041;27;20160;-75
2022/04/14 05:29:40;;;;;;;13.43;8.77;;;8.30;99.90;;;;;;5126821;27;20176;-75
2022/04/14 05:32:06;;;;;;;10.50;7.18;;;8.30;99.90;;;;;;5116445;27;20486;-74
2022/04/14 05:34:32;;;;;;;9.55;7.22;;;8.40;99.90;;;;;;5134013;27;20039;-74
2022/04/14 05:36:58;;;;;;;;;;;8.50;99.90;;;;;;5124135;27;20039;-74
2022/04/14 05:39:24;;;;;;;12.85;8.80;;;8.50;99.90;;;;;;5125755;27;19916;-74
2022/04/14 05:41:49;;;;;;;10.30;7.78;;;8.60;99.90;;;;;;5116711;27;20045;-75
2022/04/14 05:44:16;;;;;;;10.25;6.78;;;8.70;99.90;;;;;;5105871;27;20046;-75
2022/04/14 05:46:42;;;;;;;16.70;12.45;;;8.70;99.90;;;;;;5116724;27;20783;-74
2022/04/14 05:49:08;;;;;;;16.52;12.05;;;8.70;99.90;;;;;;5115220;27;20035;-74
2022/04/14 05:51:34;;;;;;;12.23;10.32;;;8.80;99.90;;;;;;5120491;27;20119;-75
2022/04/14 05:53:59;;;;;;;11.00;8.38;;;8.90;99.90;;;;;;5113219;28;20043;-74
2022/04/14 05:56:25;;;;;;;12.38;8.70;;;8.90;99.90;;;;;;5114016;27;20043;-74
2022/04/14 05:58:53;;;;;;;15.00;9.32;;;9.00;99.90;;;;;;5096086;28;20051;-75
2022/04/14 06:01:19;;;;;;;17.40;10.30;;;9.00;99.90;;;;;;5121693;27;20049;-75
2022/04/14 06:03:45;;;;;;;;;;;9.00;99.90;;;;;;5122030;27;20084;-75
2022/04/14 06:06:12;;;;;;;10.85;8.70;;;9.00;99.90;;;;;;5119711;27;20316;-74
2022/04/14 06:08:38;;;;;;;10.52;8.20;;;9.10;99.90;;;;;;5099052;27;20051;-74
2022/04/14 06:11:05;;;;;;;13.43;9.77;;;9.10;99.90;;;;;;5115709;27;20461;-74
2022/04/14 06:13:31;;;;;;;15.40;10.93;;;9.10;99.90;;;;;;5131925;27;20043;-74
2022/04/14 06:15:57;;;;;;;;;;;9.20;99.90;;;;;;5113900;27;20061;-74
2022/04/14 06:18:22;;;;;;;17.73;13.95;;;9.30;99.90;;;;;;5120065;27;19920;-75
2022/04/14 06:20:49;;;;;;;17.98;13.55;;;9.40;99.90;;;;;;5132485;27;20164;-75
2022/04/14 06:23:18;;;;;;;18.40;14.85;;;9.70;99.90;;;;;;5124935;27;20115;-75
2022/04/14 06:25:50;;;;;;;18.33;13.98;;;10.00;99.90;;;;;;5131006;27;20035;-75
2022/04/14 06:28:19;;;;;;;16.60;13.05;;;10.30;99.90;;;;;;5126798;27;20027;-74
2022/04/14 06:30:50;;;;;;;18.73;13.68;;;10.50;99.90;;;;;;5102196;28;20104;-74
2022/04/14 06:33:16;;;;;;;17.20;12.00;;;10.50;99.90;;;;;;5103943;27;20039;-74
2022/04/14 06:35:43;;;;;;;15.60;12.13;;;10.50;99.90;;;;;;5126914;27;20093;-73
2022/04/14 06:38:08;;;;;;;;;;;10.40;99.90;;;;;;5121660;27;20067;-74
2022/04/14 06:40:35;;;;;;;23.45;15.50;;;10.50;99.90;;;;;;5132115;27;19954;-77
2022/04/14 06:43:01;;;;;;;21.50;14.77;;;10.70;99.90;;;;;;5097868;27;20393;-78
2022/04/14 06:45:27;;;;;;;21.80;13.70;;;11.00;99.90;;;;;;5098877;27;20104;-77
2022/04/14 06:47:53;;;;;;;;;;;11.30;99.90;;;;;;5084344;27;20446;-78
2022/04/14 06:50:19;;;;;;;16.38;11.73;;;11.50;99.90;;;;;;5122076;27;20010;-77
2022/04/14 06:52:44;;;;;;;17.60;13.40;;;11.70;99.90;;;;;;5099793;28;20482;-77
2022/04/14 06:55:10;;;;;;;18.83;13.98;;;12.00;99.90;;;;;;5097382;28;20027;-78
2022/04/14 06:57:36;;;;;;;18.60;13.75;;;12.10;99.90;;;;;;5109126;27;20109;-78
2022/04/14 07:00:04;;;;;;;16.70;13.88;;;12.10;99.90;;;;;;5145490;27;20031;-78
2022/04/14 07:02:31;;;;;;;16.42;11.63;;;12.30;99.90;;;;;;5132146;27;20142;-78
2022/04/14 07:04:59;;;;;;;16.70;11.77;;;12.50;99.90;;;;;;5135038;27;20435;-78
2022/04/14 07:07:25;;;;;;;15.75;10.88;;;12.60;99.90;;;;;;5114983;27;20047;-78
2022/04/14 07:09:50;;;;;;;14.50;11.75;;;12.80;99.90;;;;;;5115174;27;20050;-78
2022/04/14 07:12:16;;;;;;;19.08;13.57;;;12.90;99.90;;;;;;5131911;27;20031;-78
2022/04/14 07:14:42;;;;;;;17.42;12.77;;;12.90;99.90;;;;;;5128531;27;20044;-78
2022/04/14 07:17:10;;;;;;;16.75;11.85;;;13.20;99.90;;;;;;5112273;28;20050;-78
2022/04/14 07:19:35;;;;;;;17.20;12.60;;;13.20;99.90;;;;;;5095428;28;20051;-78
2022/04/14 07:22:02;;;;;;;14.57;11.05;;;13.20;99.90;;;;;;5078085;28;20046;-78
2022/04/14 07:24:27;;;;;;;14.63;11.00;;;13.50;99.90;;;;;;5115144;27;20129;-78
2022/04/14 07:26:53;;;;;;;16.42;12.48;;;13.60;99.90;;;;;;5105785;28;20404;-78
2022/04/14 07:29:19;;;;;;;19.60;14.95;;;13.60;99.90;;;;;;5118884;27;20039;-78
2022/04/14 07:31:45;;;;;;;21.42;14.23;;;13.90;99.90;;;;;;5132488;27;20474;-79
2022/04/14 07:34:11;;;;;;;14.45;11.45;;;13.90;99.90;;;;;;5103855;27;20084;-78
2022/04/14 07:36:37;;;;;;;16.08;12.50;;;14.00;99.90;;;;;;5098168;27;20806;-78
2022/04/14 07:39:04;;;;;;;18.35;13.23;;;13.90;99.90;;;;;;5128789;27;20039;-79
2022/04/14 07:41:30;;;;;;;15.63;11.93;;;14.00;99.90;;;;;;5096345;27;20145;-78
2022/04/14 07:43:56;;;;;;;16.88;11.52;;;14.10;99.90;;;;;;5113536;27;20126;-78
2022/04/14 07:46:22;;;;;;;15.07;11.45;;;14.20;99.90;;;;;;5101347;28;20047;-78
2022/04/14 07:48:48;;;;;;;15.43;13.02;;;14.20;99.90;;;;;;5095076;28;20521;-72
2022/04/14 07:51:13;;;;;;;18.20;13.95;;;14.30;99.90;;;;;;5123334;27;20075;-72
2022/04/14 07:53:39;;;;;;;17.65;13.70;;;14.20;99.90;;;;;;5118347;27;20039;-73
2022/04/14 07:56:05;;;;;;;15.82;14.02;;;14.20;99.90;;;;;;5111183;27;20505;-73
2022/04/14 07:58:31;;;;;;;16.95;12.23;;;14.20;99.90;;;;;;5108505;27;20469;-73
2022/04/14 08:00:57;;;;;;;16.38;11.82;;;14.30;99.90;;;;;;5111299;27;20118;-73
2022/04/14 08:03:23;;;;;;;16.08;13.35;;;14.50;99.90;;;;;;5101212;28;20455;-74
2022/04/14 08:05:49;;;;;;;16.98;14.00;;;14.40;99.90;;;;;;5101879;27;20135;-74
2022/04/14 08:08:19;;;;;;;15.20;11.80;;;14.30;99.90;;;;;;5125121;27;20114;-74
2022/04/14 08:10:49;;;;;;;17.00;12.95;;;14.40;99.90;;;;;;5129965;27;20088;-74
2022/04/14 08:13:17;;;;;;;11.45;9.15;;;14.40;99.90;;;;;;5112008;27;20573;-74
2022/04/14 08:15:43;;;;;;;14.35;12.35;;;14.70;99.90;;;;;;5125792;27;21031;-74
2022/04/14 08:18:09;;;;;;;;;;;14.70;99.90;;;;;;5131426;27;20039;-74
2022/04/14 08:20:39;;;;;;;13.57;11.10;;;14.90;99.90;;;;;;5131557;27;20006;-73
2022/04/14 08:23:06;;;;;;;14.55;12.38;;;14.90;99.90;;;;;;5129963;27;20039;-74
2022/04/14 08:25:41;;;;;;;14.85;11.18;;;15.10;99.90;;;;;;5093233;27;20050;-74
2022/04/14 08:28:07;;;;;;;15.07;11.93;;;15.20;99.90;;;;;;5130734;27;20035;-74
2022/04/14 08:30:34;;;;;;;13.55;12.13;;;15.10;99.90;;;;;;5129045;27;20043;-74
2022/04/14 08:33:05;;;;;;;15.27;12.18;;;15.10;99.90;;;;;;5102292;27;20071;-74
2022/04/14 08:35:32;;;;;;;15.73;12.60;;;15.40;99.90;;;;;;5135069;27;20092;-75
2022/04/14 08:38:01;;;;;;;15.95;12.85;;;15.40;99.90;;;;;;5130654;27;20039;-74
2022/04/14 08:40:38;;;;;;;15.25;12.43;;;15.50;99.90;;;;;;5130501;27;20054;-74
2022/04/14 08:43:11;;;;;;;16.05;12.85;;;15.60;99.90;;;;;;5126181;27;20031;-74
2022/04/14 08:45:44;;;;;;;15.93;12.05;;;15.80;99.90;;;;;;5121162;27;20114;-74
2022/04/14 08:48:12;;;;;;;12.77;10.95;;;15.90;99.90;;;;;;5112197;27;20043;-74
2022/04/14 08:50:38;;;;;;;13.57;11.55;;;16.20;99.90;;;;;;5109172;28;20490;-75
2022/04/14 08:53:05;;;;;;;14.55;12.85;;;16.20;99.90;;;;;;5130749;28;20039;-83
2022/04/14 08:55:31;;;;;;;12.27;10.93;;;16.20;99.90;;;;;;5120608;28;20043;-74
2022/04/14 08:58:01;;;;;;;13.02;10.07;;;16.10;99.90;;;;;;5110006;28;20078;-82
2022/04/14 09:00:27;;;;;;;12.43;9.77;;;16.00;99.90;;;;;;5076454;28;20487;-73
2022/04/14 09:02:55;;;;;;;13.05;10.48;;;16.10;99.90;;;;;;5116356;27;20038;-75
2022/04/14 09:05:21;;;;;;;12.15;10.48;;;16.20;99.90;;;;;;5124686;27;20449;-73
2022/04/14 09:07:51;;;;;;;10.30;8.43;;;16.20;99.90;;;;;;5128577;27;20122;-73
2022/04/14 09:10:18;;;;;;;11.90;8.63;;;16.40;99.90;;;;;;5129821;27;20069;-74
2022/04/14 09:12:44;;;;;;;9.68;7.28;;;16.50;99.90;;;;;;5131873;27;20414;-73
2022/04/14 09:15:11;;;;;;;7.78;6.82;;;16.50;99.90;;;;;;5112236;27;20054;-73
2022/04/14 09:17:47;;;;;;;10.23;7.57;;;16.50;99.90;;;;;;5125787;27;20035;-73
2022/04/14 09:20:40;;;;;;;10.57;6.72;;;16.60;99.90;;;;;;5131788;27;20126;-75
2022/04/14 09:23:36;;;;;;;9.88;7.38;;;16.70;99.90;;;;;;5124459;27;20078;-74
2022/04/14 09:26:13;;;;;;;13.00;7.40;;;16.60;99.90;;;;;;5134669;27;20153;-73
2022/04/14 09:28:40;;;;;;;11.13;7.75;;;16.50;99.90;;;;;;5098325;27;20042;-74
2022/04/14 09:31:06;;;;;;;9.82;8.10;;;16.40;99.90;;;;;;5132872;27;20055;-74
2022/04/14 09:33:38;;;;;;;10.18;8.00;;;16.60;99.90;;;;;;5125745;27;20100;-74
2022/04/14 09:36:08;;;;;;;10.52;6.93;;;16.70;99.90;;;;;;5130680;27;20042;-75
2022/04/14 09:39:06;;;;;;;9.90;6.72;;;16.80;99.90;;;;;;5130628;27;20070;-73
2022/04/14 09:41:42;;;;;;;10.65;7.05;;;16.70;99.90;;;;;;5135256;27;20435;-73
2022/04/14 09:44:09;;;;;;;9.45;6.85;;;16.70;99.90;;;;;;5133819;27;20486;-73
2022/04/14 09:46:37;;;;;;;9.80;6.28;;;16.90;99.90;;;;;;5131989;27;20047;-73
2022/04/14 09:49:16;;;;;;;8.63;6.90;;;17.10;99.90;;;;;;5132590;27;20573;-72
2022/04/14 09:51:44;;;;;;;10.40;7.30;;;16.60;99.90;;;;;;5133667;27;20031;-74
2022/04/14 09:54:15;;;;;;;8.80;6.30;;;16.30;99.90;;;;;;5133288;27;20051;-73
2022/04/14 09:56:41;;;;;;;10.40;7.07;;;16.20;99.90;;;;;;5133445;27;20051;-74
2022/04/14 09:59:08;;;;;;;9.77;7.53;;;16.70;99.90;;;;;;5133354;27;20068;-74
2022/04/14 10:01:34;;;;;;;10.98;7.18;;;16.80;99.90;;;;;;5133336;27;20092;-74
2022/04/14 10:04:00;;;;;;;8.93;6.20;;;16.80;99.90;;;;;;5133305;27;20093;-74
2022/04/14 10:06:26;;;;;;;8.93;6.45;;;16.60;99.90;;;;;;5116219;27;20050;-74
2022/04/14 10:08:52;;;;;;;10.93;6.50;;;16.10;99.90;;;;;;5133377;27;20039;-74
2022/04/14 10:11:29;;;;;;;7.90;6.13;;;15.90;99.90;;;;;;5133086;27;20047;-74
2022/04/14 10:14:12;;;;;;;9.50;6.57;;;16.10;99.90;;;;;;5132388;27;20039;-74
2022/04/14 10:16:40;;;;;;;9.88;6.43;;;16.60;99.90;;;;;;5115855;27;20047;-74
2022/04/14 10:19:08;;;;;;;8.73;6.63;;;16.70;99.90;;;;;;5133193;27;20065;-73
2022/04/14 10:21:35;;;;;;;6.72;5.05;;;17.00;99.90;;;;;;5133256;27;20099;-73
2022/04/14 10:24:01;;;;;;;7.95;6.05;;;17.50;99.90;;;;;;5115975;27;20465;-74
2022/04/14 10:26:28;;;;;;;9.65;6.35;;;17.60;99.90;;;;;;5132902;27;20075;-74
2022/04/14 10:28:55;;;;;;;10.10;6.25;;;17.50;99.90;;;;;;5133266;27;20053;-74
2022/04/14 10:31:21;;;;;;;8.27;5.70;;;17.70;99.90;;;;;;5132831;27;20043;-74
2022/04/14 10:33:48;;;;;;;8.50;5.47;;;17.50;99.90;;;;;;5132767;27;20103;-74
2022/04/14 10:36:14;;;;;;;6.30;4.15;;;17.10;99.90;;;;;;5132581;27;20088;-74
2022/04/14 10:38:43;;;;;;;4.55;3.60;;;16.70;99.90;;;;;;5132547;27;20051;-74
2022/04/14 10:41:19;;;;;;;7.35;3.35;;;16.80;99.90;;;;;;5132821;27;20043;-74
2022/04/14 10:43:47;;;;;;;5.90;3.78;;;17.20;99.90;;;;;;5132417;27;20125;-74
2022/04/14 10:46:17;;;;;;;5.95;3.47;;;17.40;99.90;;;;;;5132553;27;20409;-74
2022/04/14 10:48:45;;;;;;;5.85;4.40;;;17.60;99.90;;;;;;5132519;27;20118;-74
2022/04/14 10:51:28;;;;;;;7.00;3.75;;;17.20;99.90;;;;;;5132579;27;20096;-74
2022/04/14 10:53:57;;;;;;;6.55;3.63;;;17.60;99.90;;;;;;5132447;27;20108;-74
2022/04/14 10:56:39;;;;;;;5.30;3.28;;;17.90;99.90;;;;;;5132385;27;20047;-74
2022/04/14 10:59:13;;;;;;;5.85;3.80;;;17.60;99.90;;;;;;5132189;27;20498;-73
2022/04/14 11:01:51;;;;;;;5.70;3.10;;;17.60;99.90;;;;;;5132168;27;20096;-74
2022/04/14 11:04:28;;;;;;;6.47;3.28;;;17.90;99.90;;;;;;5131831;27;20047;-74
2022/04/14 11:07:01;;;;;;;5.90;2.97;;;17.80;99.90;;;;;;5132028;27;20047;-74
2022/04/14 11:09:42;;;;;;;6.40;3.50;;;17.30;99.90;;;;;;5132121;27;20472;-74
2022/04/14 11:12:39;;;;;;;4.88;3.17;;;16.90;99.90;;;;;;5115378;27;20043;-74
2022/04/14 11:15:06;;;;;;;;;;;16.60;99.90;;;;;;5127793;27;20050;-73
2022/04/14 11:17:38;;;;;;;3.83;2.03;;;16.90;99.90;;;;;;5130985;27;19919;-74
2022/04/14 11:20:22;;;;;;;4.50;2.35;;;16.70;99.90;;;;;;5113197;27;20047;-81
2022/04/14 11:23:14;;;;;;;7.38;3.90;;;17.40;99.90;;;;;;5132570;27;20039;-81
2022/04/14 11:25:48;;;;;;;6.80;3.63;;;17.70;99.90;;;;;;5132656;27;20046;-80
2022/04/14 11:28:25;;;;;;;6.03;3.60;;;18.00;99.90;;;;;;5132074;27;20050;-81
2022/04/14 11:30:53;;;;;;;6.68;3.55;;;18.00;99.90;;;;;;5131822;27;20054;-80
2022/04/14 11:33:31;;;;;;;5.18;2.78;;;18.20;99.90;;;;;;5131963;27;20045;-80
2022/04/14 11:36:11;;;;;;;5.40;3.42;;;18.50;99.70;;;;;;5133091;27;20435;-80
2022/04/14 11:38:59;;;;;;;7.22;3.40;;;18.40;99.90;;;;;;5131960;27;20130;-80
2022/04/14 11:41:32;;;;;;;4.53;2.97;;;18.30;99.90;;;;;;5131539;27;20564;-81
2022/04/14 11:44:03;;;;;;;5.25;3.50;;;18.10;99.90;;;;;;5131599;27;20070;-81
2022/04/14 11:46:30;;;;;;;5.20;2.60;;;17.80;99.90;;;;;;5131103;27;20051;-80
2022/04/14 11:48:56;;;;;;;5.40;2.88;;;17.50;99.90;;;;;;5131569;27;20103;-80
2022/04/14 11:51:21;;;;;;;7.03;3.22;;;17.50;99.90;;;;;;5131398;27;20486;-80
2022/04/14 11:53:50;;;;;;;6.00;2.95;;;17.70;99.90;;;;;;5114391;27;20126;-80
2022/04/14 11:56:20;;;;;;;5.75;3.20;;;17.60;99.90;;;;;;5131260;27;20442;-80
2022/04/14 11:58:47;;;;;;;6.78;3.50;;;17.70;99.90;;;;;;5114195;27;20470;-80
2022/04/14 12:01:13;;;;;;;6.20;3.70;;;17.70;99.90;;;;;;5113966;27;20054;-81
2022/04/14 12:03:41;;;;;;;6.28;3.67;;;17.60;99.90;;;;;;5113915;27;20453;-80
2022/04/14 12:06:11;;;;;;;5.90;3.80;;;17.50;99.90;;;;;;5114060;27;20083;-80
2022/04/14 12:08:37;;;;;;;6.68;3.33;;;17.40;99.90;;;;;;5131092;27;20367;-81
2022/04/14 12:11:13;;;;;;;6.40;3.40;;;17.40;99.90;;;;;;5130935;27;20039;-81
2022/04/14 12:13:40;;;;;;;7.47;3.42;;;17.60;99.90;;;;;;5131039;27;20039;-81
2022/04/14 12:16:08;;;;;;;6.10;3.13;;;17.40;99.90;;;;;;5132192;27;20043;-80
2022/04/14 12:18:35;;;;;;;6.38;3.25;;;17.40;99.90;;;;;;5130790;27;20047;-80
2022/04/14 12:21:01;;;;;;;5.93;2.50;;;17.50;99.90;;;;;;5113603;27;20041;-80
2022/04/14 12:23:27;;;;;;;5.38;3.00;;;17.60;99.90;;;;;;5130629;27;20039;-81
2022/04/14 12:25:54;;;;;;;5.32;3.05;;;17.60;99.90;;;;;;5113492;27;20055;-82
2022/04/14 12:28:20;;;;;;;8.30;2.55;;;17.50;99.90;;;;;;5096719;27;20043;-81
2022/04/14 12:30:46;;;;;;;5.07;2.60;;;17.40;99.90;;;;;;5130443;27;20121;-81
2022/04/14 12:33:12;;;;;;;;;;;17.30;99.90;;;;;;5131051;27;20046;-80
2022/04/14 12:35:39;;;;;;;5.22;2.47;;;17.10;99.90;;;;;;5130527;27;19920;-81
2022/04/14 12:38:16;;;;;;;7.80;2.80;;;16.90;99.90;;;;;;5130414;27;20125;-82
2022/04/14 12:41:02;;;;;;;5.13;2.95;;;17.00;99.90;;;;;;5130624;27;20043;-81
2022/04/14 12:43:39;;;;;;;5.63;3.10;;;16.80;99.90;;;;;;5130352;27;20108;-81
2022/04/14 12:46:25;;;;;;;8.13;3.00;;;16.40;99.90;;;;;;5127074;27;20136;-82
2022/04/14 12:49:07;;;;;;;4.68;2.72;;;16.40;99.90;;;;;;5130535;27;20066;-81
2022/04/14 12:51:38;;;;;;;7.00;3.30;;;16.20;99.90;;;;;;5130368;27;20054;-81